createdAt,value
2018-06-11T00:02:01.178Z,3.90
2018-06-11T00:04:29.494Z,3.20
2018-06-11T00:06:58.254Z,4.30
2018-06-11T00:09:26.902Z,5.53
2018-06-11T00:11:55.930Z,5.83
2018-06-11T00:14:24.597Z,8.53
2018-06-11T00:16:52.878Z,5.27
2018-06-11T00:19:21.517Z,6.23
2018-06-11T00:21:50.163Z,7.13
2018-06-11T00:24:18.810Z,7.83
2018-06-11T00:26:47.506Z,6.90
2018-06-11T00:29:16.202Z,5.00
2018-06-11T00:31:44.840Z,5.30
2018-06-11T00:34:13.501Z,7.90
2018-06-11T00:36:42.165Z,5.03
2018-06-11T00:39:10.825Z,5.03
2018-06-11T00:41:39.456Z,6.23
2018-06-11T00:44:08.130Z,5.60
2018-06-11T00:46:36.775Z,5.30
2018-06-11T00:49:05.535Z,4.67
2018-06-11T00:51:34.233Z,4.73
2018-06-11T00:54:03.001Z,6.40
2018-06-11T00:56:31.705Z,5.37
2018-06-11T00:59:00.379Z,5.87
2018-06-11T01:01:29.013Z,4.30
2018-06-11T01:03:57.705Z,6.87
2018-06-11T01:06:26.019Z,7.20
2018-06-11T01:08:54.714Z,5.70
2018-06-11T01:11:23.365Z,7.17
2018-06-11T01:13:52.088Z,6.40
2018-06-11T01:16:20.769Z,5.63
2018-06-11T01:18:49.533Z,6.43
2018-06-11T01:21:18.217Z,5.47
2018-06-11T01:23:46.849Z,6.37
2018-06-11T01:26:15.562Z,4.90
2018-06-11T01:28:44.327Z,9.03
2018-06-11T01:31:13.157Z,5.50
2018-06-11T01:33:41.832Z,6.00
2018-06-11T01:36:10.517Z,10.53
2018-06-11T01:38:39.182Z,7.73
2018-06-11T01:41:07.830Z,6.53
2018-06-11T01:43:36.458Z,7.87
2018-06-11T01:46:05.178Z,7.17
2018-06-11T01:48:34.171Z,6.87
2018-06-11T01:51:02.874Z,5.93
2018-06-11T01:53:31.573Z,5.80
2018-06-11T01:56:00.226Z,5.57
2018-06-11T01:58:28.958Z,6.23
2018-06-11T02:00:57.675Z,6.73
2018-06-11T02:03:26.299Z,6.83
2018-06-11T02:05:54.980Z,4.03
2018-06-11T02:08:23.625Z,6.17
2018-06-11T02:10:52.304Z,7.73
2018-06-11T02:13:20.967Z,7.83
2018-06-11T02:15:49.652Z,3.90
2018-06-11T02:18:18.286Z,6.73
2018-06-11T02:20:46.953Z,3.73
2018-06-11T02:23:15.250Z,10.40
2018-06-11T02:25:43.900Z,8.30
2018-06-11T02:28:12.562Z,8.30
2018-06-11T02:30:41.271Z,8.43
2018-06-11T02:33:09.942Z,8.70
2018-06-11T02:35:38.711Z,6.53
2018-06-11T02:38:07.591Z,7.70
2018-06-11T02:40:36.293Z,8.97
2018-06-11T02:43:05.123Z,7.73
2018-06-11T02:45:33.786Z,8.43
2018-06-11T02:48:02.544Z,7.43
2018-06-11T02:50:31.275Z,4.50
2018-06-11T02:53:00.001Z,8.83
2018-06-11T02:55:28.678Z,7.90
2018-06-11T02:57:57.546Z,6.63
2018-06-11T03:00:26.357Z,8.00
2018-06-11T03:02:55.041Z,6.00
2018-06-11T03:05:23.749Z,6.30
2018-06-11T03:07:52.469Z,8.60
2018-06-11T03:10:21.142Z,5.67
2018-06-11T03:12:49.907Z,7.23
2018-06-11T03:15:18.598Z,8.63
2018-06-11T03:17:47.370Z,7.90
2018-06-11T03:20:16.078Z,6.67
2018-06-11T03:22:44.758Z,5.10
2018-06-11T03:25:13.438Z,8.10
2018-06-11T03:27:42.120Z,7.13
2018-06-11T03:30:11.863Z,6.70
2018-06-11T03:32:40.621Z,8.53
2018-06-11T03:35:09.328Z,5.53
2018-06-11T03:37:38.030Z,7.47
2018-06-11T03:40:06.893Z,4.10
2018-06-11T03:42:35.630Z,7.40
2018-06-11T03:45:04.422Z,5.40
2018-06-11T03:47:33.138Z,8.90
2018-06-11T03:50:01.913Z,5.53
2018-06-11T03:52:30.659Z,6.20
2018-06-11T03:54:59.333Z,8.20
2018-06-11T03:57:28.089Z,6.40
2018-06-11T03:59:56.837Z,4.20
2018-06-11T04:02:25.534Z,5.83
2018-06-11T04:04:54.302Z,7.30
2018-06-11T04:07:23.074Z,5.57
2018-06-11T04:09:51.951Z,7.73
2018-06-11T04:12:20.928Z,6.70
2018-06-11T04:14:49.636Z,6.27
2018-06-11T04:17:18.357Z,3.40
2018-06-11T04:19:47.232Z,4.23
2018-06-11T04:22:15.625Z,4.83
2018-06-11T04:24:44.404Z,5.23
2018-06-11T04:27:13.358Z,4.50
2018-06-11T04:29:42.098Z,3.97
2018-06-11T04:32:10.834Z,2.70
2018-06-11T04:34:39.693Z,6.23
2018-06-11T04:37:08.482Z,3.40
2018-06-11T04:39:37.228Z,3.20
2018-06-11T04:42:06.017Z,4.40
2018-06-11T04:44:34.337Z,2.63
2018-06-11T04:47:03.169Z,1.67
2018-06-11T04:49:31.981Z,3.73
2018-06-11T04:52:00.759Z,2.17
2018-06-11T04:54:29.493Z,4.33
2018-06-11T04:56:58.318Z,5.10
2018-06-11T04:59:27.026Z,5.07
2018-06-11T05:01:55.647Z,4.37
2018-06-11T05:04:24.454Z,4.23
2018-06-11T05:06:53.308Z,4.73
2018-06-11T05:09:22.165Z,6.07
2018-06-11T05:11:50.892Z,5.47
2018-06-11T05:14:19.683Z,6.17
2018-06-11T05:16:48.399Z,5.93
2018-06-11T05:19:17.378Z,7.03
2018-06-11T05:21:46.066Z,5.53
2018-06-11T05:24:14.950Z,3.67
2018-06-11T05:26:43.714Z,5.83
2018-06-11T05:29:12.454Z,4.67
2018-06-11T05:31:41.218Z,5.23
2018-06-11T05:34:10.090Z,4.47
2018-06-11T05:36:38.978Z,3.60
2018-06-11T05:39:08.981Z,6.30
2018-06-11T05:41:37.884Z,4.83
2018-06-11T05:44:06.720Z,6.20
2018-06-11T05:46:35.517Z,7.50
2018-06-11T05:49:03.869Z,6.80
2018-06-11T05:51:32.591Z,7.63
2018-06-11T05:54:00.909Z,5.00
2018-06-11T05:56:29.603Z,7.70
2018-06-11T05:58:58.310Z,6.07
2018-06-11T06:01:27.017Z,5.67
2018-06-11T06:03:55.457Z,6.87
2018-06-11T06:06:24.189Z,6.63
2018-06-11T06:08:52.970Z,4.43
2018-06-11T06:11:21.791Z,7.00
2018-06-11T06:13:50.492Z,5.97
2018-06-11T06:16:19.321Z,4.50
2018-06-11T06:18:48.154Z,5.60
2018-06-11T06:21:16.948Z,5.17
2018-06-11T06:23:45.714Z,7.37
2018-06-11T06:26:14.423Z,5.77
2018-06-11T06:28:43.122Z,7.07
2018-06-11T06:31:11.786Z,8.00
2018-06-11T06:33:40.530Z,7.57
2018-06-11T06:36:09.207Z,7.07
2018-06-11T06:38:38.037Z,5.43
2018-06-11T06:41:06.842Z,6.87
2018-06-11T06:43:35.527Z,4.70
2018-06-11T06:46:03.867Z,9.20
2018-06-11T06:48:32.630Z,7.27
2018-06-11T06:51:01.329Z,3.67
2018-06-11T06:53:29.941Z,8.17
2018-06-11T06:55:58.721Z,5.23
2018-06-11T06:58:27.364Z,7.07
2018-06-11T07:00:56.228Z,3.53
2018-06-11T07:03:24.938Z,2.40
2018-06-11T07:05:53.661Z,4.93
2018-06-11T07:08:22.478Z,4.90
2018-06-11T07:10:51.238Z,4.30
2018-06-11T07:13:19.967Z,3.70
2018-06-11T07:15:48.709Z,4.90
2018-06-11T07:18:17.505Z,4.40
2018-06-11T07:20:45.842Z,3.80
2018-06-11T07:23:14.475Z,4.60
2018-06-11T07:25:43.265Z,4.33
2018-06-11T07:28:11.981Z,5.10
2018-06-11T07:30:40.761Z,5.17
2018-06-11T07:33:09.442Z,5.00
2018-06-11T07:35:38.229Z,3.93
2018-06-11T07:38:06.954Z,5.23
2018-06-11T07:40:35.810Z,5.03
2018-06-11T07:43:04.589Z,6.17
2018-06-11T07:45:33.409Z,3.77
2018-06-11T07:48:02.225Z,4.63
2018-06-11T07:50:31.007Z,6.00
2018-06-11T07:52:59.948Z,7.93
2018-06-11T07:55:28.642Z,4.50
2018-06-11T07:57:57.446Z,6.37
2018-06-11T08:00:26.289Z,10.23
2018-06-11T08:02:55.047Z,6.83
2018-06-11T08:05:23.994Z,9.00
2018-06-11T08:07:52.873Z,5.23
2018-06-11T08:10:21.897Z,3.37
2018-06-11T08:12:50.568Z,5.80
2018-06-11T08:15:19.586Z,3.83
2018-06-11T08:17:48.481Z,8.83
2018-06-11T08:20:17.230Z,7.97
2018-06-11T08:22:46.033Z,5.53
2018-06-11T08:25:15.007Z,4.67
2018-06-11T08:27:43.743Z,4.37
2018-06-11T08:30:12.530Z,6.03
2018-06-11T08:32:41.375Z,7.30
2018-06-11T08:35:10.117Z,6.27
2018-06-11T08:37:38.877Z,5.83
2018-06-11T08:40:07.654Z,4.67
2018-06-11T08:42:36.358Z,5.80
2018-06-11T08:45:05.132Z,6.03
2018-06-11T08:47:33.842Z,6.20
2018-06-11T08:50:02.525Z,6.57
2018-06-11T08:52:31.178Z,7.53
2018-06-11T08:54:59.862Z,6.80
2018-06-11T08:57:28.532Z,9.27
2018-06-11T08:59:57.278Z,7.20
2018-06-11T09:02:25.920Z,8.50
2018-06-11T09:04:54.657Z,6.97
2018-06-11T09:07:23.346Z,8.60
2018-06-11T09:09:51.648Z,4.73
2018-06-11T09:12:20.343Z,5.60
2018-06-11T09:14:49.065Z,8.67
2018-06-11T09:17:17.841Z,8.67
2018-06-11T09:19:46.566Z,7.83
2018-06-11T09:22:15.203Z,5.10
2018-06-11T09:24:43.978Z,7.63
2018-06-11T09:27:12.730Z,8.30
2018-06-11T09:29:41.355Z,7.07
2018-06-11T09:32:10.113Z,6.67
2018-06-11T09:34:38.862Z,6.37
2018-06-11T09:37:07.698Z,7.17
2018-06-11T09:39:36.421Z,6.83
2018-06-11T09:42:05.241Z,8.30
2018-06-11T09:44:33.974Z,7.50
2018-06-11T09:47:02.754Z,7.27
2018-06-11T09:49:31.462Z,7.33
2018-06-11T09:52:00.159Z,5.20
2018-06-11T09:54:29.023Z,8.33
2018-06-11T09:56:57.746Z,9.80
2018-06-11T09:59:26.410Z,11.13
2018-06-11T10:01:55.142Z,10.07
2018-06-11T10:04:23.870Z,6.93
2018-06-11T10:06:52.646Z,6.97
2018-06-11T10:09:21.337Z,6.67
2018-06-11T10:11:50.187Z,10.43
2018-06-11T10:14:18.987Z,7.57
2018-06-11T10:16:47.749Z,7.50
2018-06-11T10:19:16.540Z,6.83
2018-06-11T10:21:45.306Z,6.03
2018-06-11T10:24:14.087Z,8.93
2018-06-11T10:26:42.808Z,8.47
2018-06-11T10:29:11.502Z,9.43
2018-06-11T10:31:40.311Z,6.13
2018-06-11T10:34:09.150Z,7.73
2018-06-11T10:36:37.865Z,7.97
2018-06-11T10:39:08.100Z,7.00
2018-06-11T10:41:36.900Z,7.30
2018-06-11T10:44:05.710Z,6.17
2018-06-11T10:46:34.506Z,7.73
2018-06-11T10:49:03.389Z,8.10
2018-06-11T10:51:32.154Z,8.43
2018-06-11T10:54:00.816Z,8.37
2018-06-11T10:56:29.514Z,8.10
2018-06-11T10:58:58.156Z,8.03
2018-06-11T11:01:26.933Z,10.50
2018-06-11T11:03:55.591Z,5.40
2018-06-11T11:06:24.342Z,6.57
2018-06-11T11:08:53.393Z,6.70
2018-06-11T11:11:22.091Z,9.53
2018-06-11T11:13:50.867Z,5.90
2018-06-11T11:16:19.530Z,6.20
2018-06-11T11:18:48.209Z,8.00
2018-06-11T11:21:16.905Z,6.00
2018-06-11T11:23:45.590Z,5.83
2018-06-11T11:26:14.306Z,5.67
2018-06-11T11:28:43.080Z,7.30
2018-06-11T11:31:11.948Z,4.67
2018-06-11T11:33:40.585Z,6.37
2018-06-11T11:36:09.366Z,9.10
2018-06-11T11:38:38.112Z,7.27
2018-06-11T11:41:06.950Z,8.53
2018-06-11T11:43:35.811Z,12.07
2018-06-11T11:46:04.576Z,8.57
2018-06-11T11:48:33.360Z,8.77
2018-06-11T11:51:02.155Z,8.03
2018-06-11T11:53:31.037Z,5.87
2018-06-11T11:55:59.738Z,9.57
2018-06-11T11:58:28.466Z,13.22
2018-06-11T12:00:56.769Z,9.63
2018-06-11T12:03:25.522Z,12.57
2018-06-11T12:05:54.169Z,11.60
2018-06-11T12:08:22.830Z,12.23
2018-06-11T12:10:51.867Z,10.70
2018-06-11T12:13:20.566Z,15.57
2018-06-11T12:15:49.344Z,10.43
2018-06-11T12:18:18.173Z,12.63
2018-06-11T12:20:47.778Z,9.63
2018-06-11T12:23:16.507Z,9.87
2018-06-11T12:25:45.151Z,8.17
2018-06-11T12:28:13.801Z,8.37
2018-06-11T12:30:42.523Z,9.30
2018-06-11T12:33:11.174Z,9.57
2018-06-11T12:35:39.854Z,10.27
2018-06-11T12:38:08.586Z,12.27
2018-06-11T12:40:37.284Z,12.47
2018-06-11T12:43:05.949Z,13.17
2018-06-11T12:45:34.622Z,9.13
2018-06-11T12:48:03.317Z,9.63
2018-06-11T12:50:32.042Z,13.47
2018-06-11T12:53:00.721Z,7.83
2018-06-11T12:55:29.401Z,10.67
2018-06-11T12:57:58.107Z,11.60
2018-06-11T13:00:26.764Z,11.47
2018-06-11T13:02:55.451Z,9.70
2018-06-11T13:05:24.122Z,8.80
2018-06-11T13:07:52.902Z,10.57
2018-06-11T13:10:21.225Z,9.97
2018-06-11T13:12:49.893Z,7.70
2018-06-11T13:15:18.630Z,8.30
2018-06-11T13:17:47.410Z,10.17
2018-06-11T13:20:16.066Z,10.10
2018-06-11T13:22:44.738Z,10.27
2018-06-11T13:25:13.394Z,9.47
2018-06-11T13:27:42.130Z,9.33
2018-06-11T13:30:10.826Z,9.87
2018-06-11T13:32:39.610Z,10.17
2018-06-11T13:35:08.313Z,7.63
2018-06-11T13:37:36.980Z,10.13
2018-06-11T13:40:05.624Z,9.87
2018-06-11T13:42:34.258Z,10.63
2018-06-11T13:45:02.933Z,11.67
2018-06-11T13:47:31.633Z,11.27
2018-06-11T13:50:00.296Z,9.10
2018-06-11T13:52:28.998Z,6.07
2018-06-11T13:54:57.656Z,6.53
2018-06-11T13:57:26.339Z,9.03
2018-06-11T13:59:55.054Z,7.87
2018-06-11T14:02:23.710Z,8.90
2018-06-11T14:04:52.729Z,7.30
2018-06-11T14:07:21.414Z,5.03
2018-06-11T14:09:50.090Z,9.90
2018-06-11T14:12:18.759Z,6.73
2018-06-11T14:14:47.457Z,11.43
2018-06-11T14:17:16.189Z,8.83
2018-06-11T14:19:44.892Z,10.60
2018-06-11T14:22:13.612Z,10.60
2018-06-11T14:24:42.297Z,5.17
2018-06-11T14:27:10.951Z,9.33
2018-06-11T14:29:39.623Z,7.80
2018-06-11T14:32:08.320Z,4.60
2018-06-11T14:34:37.077Z,6.77
2018-06-11T14:37:05.832Z,6.70
2018-06-11T14:39:34.478Z,5.20
2018-06-11T14:42:03.166Z,9.57
2018-06-11T14:44:31.861Z,9.43
2018-06-11T14:47:00.488Z,7.40
2018-06-11T14:49:29.161Z,8.23
2018-06-11T14:51:57.897Z,5.97
2018-06-11T14:54:26.622Z,6.93
2018-06-11T14:56:55.359Z,6.20
2018-06-11T14:59:23.694Z,6.20
2018-06-11T15:01:52.409Z,10.00
2018-06-11T15:04:21.150Z,9.93
2018-06-11T15:06:49.866Z,7.67
2018-06-11T15:09:18.146Z,8.07
2018-06-11T15:11:46.852Z,8.43
2018-06-11T15:14:15.510Z,6.33
2018-06-11T15:16:44.233Z,7.40
2018-06-11T15:19:12.999Z,6.80
2018-06-11T15:21:41.682Z,7.73
2018-06-11T15:24:10.388Z,8.77
2018-06-11T15:26:38.711Z,7.77
2018-06-11T15:29:07.499Z,13.93
2018-06-11T15:31:36.204Z,6.77
2018-06-11T15:34:04.887Z,6.77
2018-06-11T15:36:33.577Z,8.10
2018-06-11T15:39:02.269Z,8.73
2018-06-11T15:41:30.943Z,9.00
2018-06-11T15:43:59.629Z,7.53
2018-06-11T15:46:28.267Z,7.57
2018-06-11T15:48:56.993Z,10.60
2018-06-11T15:51:25.733Z,12.47
2018-06-11T15:53:54.378Z,8.90
2018-06-11T15:56:23.167Z,9.80
2018-06-11T15:58:51.505Z,8.60
2018-06-11T16:01:20.138Z,9.63
2018-06-11T16:03:48.805Z,8.23
2018-06-11T16:06:17.538Z,8.67
2018-06-11T16:08:46.980Z,12.03
2018-06-11T16:11:15.691Z,8.03
2018-06-11T16:13:44.416Z,6.27
2018-06-11T16:16:13.088Z,8.23
2018-06-11T16:18:41.837Z,6.23
2018-06-11T16:21:10.474Z,6.77
2018-06-11T16:23:39.154Z,8.47
2018-06-11T16:26:07.995Z,11.20
2018-06-11T16:28:36.776Z,6.80
2018-06-11T16:31:05.113Z,5.00
2018-06-11T16:33:33.426Z,7.47
2018-06-11T16:36:02.204Z,8.97
2018-06-11T16:38:30.906Z,5.13
2018-06-11T16:40:59.610Z,7.73
2018-06-11T16:43:28.265Z,9.27
2018-06-11T16:45:56.954Z,7.93
2018-06-11T16:48:25.726Z,6.23
2018-06-11T16:50:54.446Z,8.57
2018-06-11T16:53:23.113Z,10.60
2018-06-11T16:55:51.964Z,8.00
2018-06-11T16:58:20.742Z,8.93
2018-06-11T17:00:49.540Z,10.87
2018-06-11T17:03:18.364Z,8.97
2018-06-11T17:05:47.170Z,11.33
2018-06-11T17:08:15.870Z,8.30
2018-06-11T17:10:44.637Z,8.77
2018-06-11T17:13:13.095Z,10.03
2018-06-11T17:15:41.871Z,6.53
2018-06-11T17:18:10.778Z,9.97
2018-06-11T17:20:39.678Z,9.43
2018-06-11T17:23:08.370Z,9.43
2018-06-11T17:25:37.173Z,10.37
2018-06-11T17:28:06.189Z,10.07
2018-06-11T17:30:34.879Z,7.60
2018-06-11T17:33:03.630Z,8.00
2018-06-11T17:35:32.394Z,7.10
2018-06-11T17:38:01.101Z,6.63
2018-06-11T17:40:29.865Z,10.90
2018-06-11T17:42:58.589Z,12.80
2018-06-11T17:45:27.342Z,8.23
2018-06-11T17:47:56.154Z,6.60
2018-06-11T17:50:24.892Z,14.00
2018-06-11T17:52:53.650Z,7.83
2018-06-11T17:55:22.461Z,9.23
2018-06-11T17:57:51.384Z,9.33
2018-06-11T18:00:20.317Z,11.03
2018-06-11T18:02:49.039Z,8.50
2018-06-11T18:05:17.867Z,7.70
2018-06-11T18:07:46.602Z,10.63
2018-06-11T18:10:15.452Z,11.87
2018-06-11T18:12:44.282Z,9.93
2018-06-11T18:15:13.025Z,9.30
2018-06-11T18:17:41.958Z,9.50
2018-06-11T18:20:10.786Z,11.70
2018-06-11T18:22:39.475Z,14.73
2018-06-11T18:25:08.157Z,13.67
2018-06-11T18:27:36.897Z,15.47
2018-06-11T18:33:09.098Z,17.87
2018-06-11T18:35:37.781Z,16.27
2018-06-11T18:38:06.514Z,17.37
2018-06-11T18:40:35.245Z,14.30
2018-06-11T18:43:04.066Z,12.03
2018-06-11T18:45:32.794Z,11.57
2018-06-11T18:48:01.543Z,7.57
2018-06-11T18:50:30.290Z,11.03
2018-06-11T18:52:58.941Z,6.03
2018-06-11T18:55:27.647Z,3.00
2018-06-11T18:57:56.498Z,3.37
2018-06-11T19:00:25.189Z,2.10
2018-06-11T19:02:53.845Z,3.20
2018-06-11T19:05:22.953Z,2.50
2018-06-11T19:07:51.718Z,3.40
2018-06-11T19:10:20.546Z,2.47
2018-06-11T19:12:49.210Z,1.43
2018-06-11T19:15:17.998Z,1.97
2018-06-11T19:17:46.785Z,5.23
2018-06-11T19:20:15.459Z,2.30
2018-06-11T19:22:44.214Z,2.53
2018-06-11T19:25:12.884Z,2.67
2018-06-11T19:27:41.616Z,2.90
2018-06-11T19:30:10.358Z,2.60
2018-06-11T19:32:39.070Z,1.97
2018-06-11T19:35:07.778Z,2.77
2018-06-11T19:37:36.470Z,1.77
2018-06-11T19:40:05.181Z,3.00
2018-06-11T19:42:33.882Z,2.13
2018-06-11T19:45:02.599Z,3.80
2018-06-11T19:47:31.336Z,3.63
2018-06-11T19:50:00.056Z,3.63
2018-06-11T19:52:28.776Z,3.57
2018-06-11T19:54:57.514Z,3.67
2018-06-11T19:57:26.173Z,1.10
2018-06-11T19:59:54.872Z,1.97
2018-06-11T20:02:23.549Z,4.07
2018-06-11T20:04:52.226Z,2.07
2018-06-11T20:07:21.777Z,3.60
2018-06-11T20:09:50.446Z,3.73
2018-06-11T20:12:19.244Z,2.60
2018-06-11T20:14:47.986Z,4.10
2018-06-11T20:17:16.675Z,3.63
2018-06-11T20:19:45.378Z,4.07
2018-06-11T20:22:14.082Z,4.40
2018-06-11T20:24:43.142Z,3.77
2018-06-11T20:27:11.879Z,7.03
2018-06-11T20:29:40.552Z,4.53
2018-06-11T20:32:09.334Z,2.83
2018-06-11T20:34:38.115Z,4.93
2018-06-11T20:37:06.841Z,6.17
2018-06-11T20:39:35.505Z,5.70
2018-06-11T20:42:04.245Z,3.77
2018-06-11T20:44:32.970Z,5.10
2018-06-11T20:47:01.874Z,6.50
2018-06-11T20:49:30.618Z,3.03
2018-06-11T20:51:59.366Z,5.03
2018-06-11T20:54:28.062Z,6.97
2018-06-11T20:56:56.782Z,4.20
2018-06-11T20:59:25.530Z,4.87
2018-06-11T21:01:54.313Z,3.50
2018-06-11T21:04:23.063Z,6.57
2018-06-11T21:06:51.761Z,4.37
2018-06-11T21:09:20.449Z,5.33
2018-06-11T21:11:49.168Z,5.10
2018-06-11T21:14:17.873Z,4.37
2018-06-11T21:16:46.599Z,5.27
2018-06-11T21:19:15.250Z,6.57
2018-06-11T21:21:44.054Z,5.60
2018-06-11T21:24:12.765Z,6.03
2018-06-11T21:26:41.456Z,4.13
2018-06-11T21:29:10.193Z,5.90
2018-06-11T21:31:38.920Z,3.67
2018-06-11T21:34:07.589Z,5.40
2018-06-11T21:36:36.280Z,4.00
2018-06-11T21:39:07.841Z,4.33
2018-06-11T21:41:36.591Z,7.23
2018-06-11T21:44:05.325Z,7.57
2018-06-11T21:46:34.094Z,5.57
2018-06-11T21:49:02.813Z,4.20
2018-06-11T21:51:31.597Z,5.17
2018-06-11T21:54:00.266Z,4.33
2018-06-11T21:56:29.043Z,4.20
2018-06-11T21:58:57.802Z,4.57
2018-06-11T22:01:26.746Z,2.93
2018-06-11T22:03:55.549Z,4.13
2018-06-11T22:06:27.319Z,4.23
2018-06-11T22:08:56.047Z,5.20
2018-06-11T22:11:25.104Z,5.27
2018-06-11T22:13:53.842Z,4.03
2018-06-11T22:16:22.586Z,5.70
2018-06-11T22:18:51.387Z,6.10
2018-06-11T22:21:20.360Z,4.47
2018-06-11T22:23:49.249Z,6.77
2018-06-11T22:26:18.013Z,6.30
2018-06-11T22:28:48.336Z,6.90
2018-06-11T22:31:47.531Z,4.13
2018-06-11T22:34:17.130Z,6.33
2018-06-11T22:36:45.882Z,9.13
2018-06-11T22:39:14.622Z,6.27
2018-06-11T22:41:43.380Z,5.23
2018-06-11T22:44:12.070Z,4.97
2018-06-11T22:46:40.793Z,9.23
2018-06-11T22:49:09.454Z,8.87
2018-06-11T22:51:38.198Z,5.77
2018-06-11T22:54:06.893Z,9.00
2018-06-11T22:56:35.577Z,9.37
2018-06-11T22:59:04.386Z,4.77
2018-06-11T23:01:33.085Z,6.87
2018-06-11T23:04:01.748Z,5.60
2018-06-11T23:06:30.442Z,10.47
2018-06-11T23:08:59.148Z,6.87
2018-06-11T23:11:27.853Z,6.87
2018-06-11T23:13:56.546Z,5.93
2018-06-11T23:16:25.246Z,8.90
2018-06-11T23:18:53.904Z,9.83
2018-06-11T23:21:22.602Z,7.93
2018-06-11T23:23:51.310Z,12.13
2018-06-11T23:26:20.003Z,28.30
2018-06-11T23:28:48.652Z,25.97
2018-06-11T23:31:17.348Z,26.80
2018-06-11T23:33:46.042Z,31.13
2018-06-11T23:36:14.722Z,35.77
2018-06-11T23:38:43.462Z,31.10
2018-06-11T23:41:12.123Z,26.20
2018-06-11T23:43:40.826Z,26.33
2018-06-11T23:46:09.506Z,29.73
2018-06-11T23:48:38.166Z,31.50
2018-06-11T23:51:06.874Z,26.50
2018-06-11T23:53:35.569Z,35.27
2018-06-11T23:56:04.257Z,35.07
2018-06-11T23:58:32.966Z,28.10
